Historyczne dane pomiarowe

Dodano dane terminowe – wersja testowa.

Dane z okresu 1951-2019

Wersja bazy: 1.34 [2019-03-16, lista zmian], aktualizacja planowana na 2019-04-15

Dane meteo z obszaru Polski uzyskane na podstawie danych udostępnionych przez Instytut Meteorologii i Gospodarki Wodnej – Państwowy Instytut Badawczy.

 

Wybierz Datę:    

       

TemperaturaWilgotnośćWiatrCiśnienieOpadyŚniegCzas trwania zjawisk
 Stacja t tx tn tng RH VA  wxwx mslp ppp RRR   cm mm wxwxwxwxwxwxwx
1994-10-10 4.3 10.4 -1.8- 80.3- 1.7 1.0---- 0.0------------
1994-10-09 3.6 6.9 1.4- 95.3- 7.7 0.3---- 6.8------------
1994-10-08 4.4 9.9 -1.5- 86.0- 4.3 1.0---- 3.2------------
1994-10-07 2.6 3.9 0.4- 93.8- 8.0 2.0---- 3.6------------
1994-10-06 2.0 5.3 -0.6- 91.8- 8.0 0.7---- 0.1------------
1994-10-05 3.8 9.4 -0.2- 86.0- 2.0 0.7---- 0.6------------
1994-10-04 7.2 14.9 2.0- 96.8- 6.0 0.7---- 4.4------------
1994-10-03 14.1 18.1 9.7- 90.0- 7.3 0.3---- 5.5------------
1994-10-02 12.6 17.9 7.7- 85.3- 7.0 0.0---- 1.6------------
1994-10-01 13.2 20.9 7.1- 81.0- 6.7 0.0---- 0.1------------
1994-09-30 12.4 18.4 7.7- 89.3- 2.0 1.0---- 0.0------------
1994-09-29 11.4 20.7 5.5- 85.5- 4.0 1.0---- 0.0------------
1994-09-28 10.0 15.5 5.5- 93.8- 5.3 0.0---- 0.0------------
1994-09-27 14.3 19.4 11.3- 98.0- 6.3 0.0---- 4.2------------
1994-09-26 16.6 21.9 11.5- 92.3- 3.3 0.3---- 0.3------------
1994-09-25 15.7 25.8 8.3- 88.5- 4.7 0.0---- 0.0------------
1994-09-24 12.1 21.9 3.8- 89.0- 0.0 0.7---- 0.0------------
1994-09-23 12.3 17.5 9.1- 89.8- 3.0 0.3---- 0.0------------
1994-09-22 12.3 15.9 7.4- 92.0- 8.0 0.0---- 0.0------------
1994-09-21 11.0 12.7 9.5- 97.5- 8.0 0.0---- 2.8------------
1994-09-20 10.2 11.5 8.1- 98.3- 8.0 1.7---- 2.0------------
1994-09-19 10.4 15.9 3.6- 88.3- 4.3 1.0---- 2.6------------
1994-09-18 9.1 14.3 2.4- 88.5- 7.0 0.0---- 0.0------------
1994-09-17 10.1 13.4 6.5- 98.3- 8.0 0.0---- 5.8------------
1994-09-16 13.1 20.1 7.1- 77.5- 4.3 1.3---- 0.0------------
1994-09-15 18.3 24.3 13.3- 76.0- 5.0 1.7---- 0.0------------
1994-09-14 19.0 28.8 10.1- 78.8- 5.7 1.0---- 0.0------------
1994-09-13 17.4 26.4 9.7- 85.5- 4.0 0.3---- 0.9------------
1994-09-12 16.5 25.0 8.9- 78.5- 4.0 1.7---- 0.0------------
1994-09-11 14.1 20.4 6.5- 83.3- 2.7 1.3---- 0.0------------
1994-09-10 13.2 21.9 5.5- 88.8- 1.3 0.0---- 0.0------------
1994-09-09 14.7 24.7 11.4- 93.8- 5.3 0.7---- 4.0------------
1994-09-08 17.7 29.0 8.9- 83.0- 3.7 0.0---- 0.0------------
1994-09-07 15.6 24.5 6.5- 84.8- 4.7 1.0---- 0.2------------
1994-09-06 13.6 17.5 11.1- 94.0- 5.7 0.0---- 2.5------------
1994-09-05 17.4 23.1 14.4- 87.8- 6.3 1.0---- 1.0------------
1994-09-04 15.9 19.2 14.3- 95.8- 8.0 0.0---- 0.1------------
1994-09-03 20.1 25.0 14.4- 82.8- 7.3 1.0---- 0.8------------
1994-09-02 19.4 27.3 11.1- 85.5- 3.0 0.3---- 0.3------------
1994-09-01 15.9 20.4 10.7- 95.0- 6.7 0.3---- 9.0------------
1994-08-31 16.1 22.9 9.3- 83.8- 5.0 0.7---- 0.2------------
1994-08-30 15.0 20.4 6.0- 79.0- 4.3 0.3---- 0.0------------
1994-08-29 16.2 19.9 13.9- 84.3- 6.0 1.0---- 0.0------------
1994-08-28 16.1 24.4 6.7- 83.8- 1.7 0.3---- 0.0------------
1994-08-27 15.8 19.3 13.9- 86.5- 6.7 0.7---- 0.0------------
1994-08-26 16.4 20.9 15.3- 91.0- 8.0 2.0---- 13.9------------
1994-08-25 19.1 24.3 13.4- 78.8- 6.3 2.0---- 1.3------------
1994-08-24 16.1 23.9 8.7- 81.8- 4.0 0.0---- 0.0------------
1994-08-23 15.4 24.4 6.0- 74.3- 3.7 0.3---- 0.0------------
1994-08-22 16.0 22.9 9.4- 84.0- 6.0 0.3---- 0.0------------
1994-08-21 14.6 21.4 6.9- 78.3- 3.3 0.0---- 0.3------------
1994-08-20 15.7 20.4 11.5- 76.3- 6.3 2.3---- 2.7------------
1994-08-19 13.3 16.9 9.4- 79.3- 6.3 2.0---- 4.6------------
1994-08-18 13.9 17.4 10.5- 95.0- 6.3 0.7---- 17.0------------
1994-08-17 16.5 25.6 7.1- 78.3- 2.3 1.0---- 0.8------------
1994-08-16 14.9 20.3 11.4- 89.0- 7.0 1.3---- 0.0------------
1994-08-15 13.2 17.5 7.9- 79.3- 7.3 1.3---- 1.8------------
1994-08-14 14.9 19.9 10.9- 76.8- 5.7 0.0---- 0.0------------
1994-08-13 16.8 22.3 13.9- 84.8- 7.3 2.0---- 5.2------------
1994-08-12 16.5 19.8 13.4- 87.3- 7.3 0.7---- 18.0------------
522.5 ms

 

Źródłem pochodzenia danych jest Instytut Meteorologii i Gospodarki Wodnej – Państwowy Instytut Badawczy. Dane Instytutu Meteorologii i Gospodarki Wodnej – Państwowego Instytutu Badawczego zostały przetworzone.

Dane źródłowe można odnaleźć na stronie https://dane.imgw.pl